Time;durP1;ratioP1;P1;durP2;ratioP2;P2;SDS_P1;SDS_P2;PMS_P1;PMS_P2;Temp;Humidity;BMP_temperature;BMP_pressure;BME280_temperature;BME280_humidity;BME280_pressure;Samples;Min_cycle;Max_cycle;Signal;HPM_P1;HPM_P2
2022/03/08 00:00:48;;;;;;;29.00;10.88;;;;;;;0.07;75.54;99778.08;1731271;82;21038;-45
2022/03/08 00:03:14;;;;;;;29.85;10.55;;;;;;;0.10;75.52;99779.37;1731208;82;21000;-44
2022/03/08 00:05:40;;;;;;;24.82;10.32;;;;;;;0.04;75.79;99773.80;1731237;82;20991;-44
2022/03/08 00:08:06;;;;;;;21.42;9.28;;;;;;;0.06;76.19;99776.38;1731205;81;21007;-44
2022/03/08 00:10:31;;;;;;;23.10;9.68;;;;;;;0.07;74.74;99772.47;1731243;82;21007;-44
2022/03/08 00:12:58;;;;;;;22.50;8.68;;;;;;;-0.01;75.24;99776.39;1731317;83;20972;-43
2022/03/08 00:15:26;;;;;;;26.00;9.55;;;;;;;0.00;73.80;99778.56;1731203;81;21528;-44
2022/03/08 00:17:54;;;;;;;25.70;9.23;;;;;;;-0.05;75.58;99784.19;1731290;82;20999;-44
2022/03/08 00:20:20;;;;;;;27.13;10.10;;;;;;;-0.06;75.33;99781.16;1731326;82;20987;-43
2022/03/08 00:22:47;;;;;;;26.52;9.58;;;;;;;-0.05;75.25;99781.60;1731199;82;20971;-43
2022/03/08 00:25:14;;;;;;;26.30;10.23;;;;;;;-0.07;75.55;99778.17;1731200;82;21003;-45
2022/03/08 00:27:48;;;;;;;27.25;9.30;;;;;;;-0.05;74.40;99779.02;1731482;82;21006;-43
2022/03/08 00:30:15;;;;;;;26.85;10.20;;;;;;;-0.02;75.51;99778.57;1730931;82;20959;-43
2022/03/08 00:32:41;;;;;;;41.65;10.85;;;;;;;-0.03;75.95;99782.00;1730561;82;21480;-43
2022/03/08 00:35:07;;;;;;;34.48;11.18;;;;;;;0.02;76.41;99785.00;1731156;81;20999;-43
2022/03/08 00:37:33;;;;;;;33.60;9.95;;;;;;;0.05;76.88;99789.72;1731154;82;20975;-45
2022/03/08 00:39:59;;;;;;;31.48;9.90;;;;;;;0.09;76.74;99784.98;1731268;82;21026;-43
2022/03/08 00:42:25;;;;;;;24.25;8.60;;;;;;;0.10;75.92;99791.01;1731179;82;20982;-43
2022/03/08 00:44:51;;;;;;;22.45;8.83;;;;;;;0.03;76.12;99796.63;1731437;82;21535;-43
2022/03/08 00:47:17;;;;;;;23.62;9.70;;;;;;;0.03;75.52;99795.78;1724204;83;21047;-45
2022/03/08 00:49:43;;;;;;;25.40;9.13;;;;;;;-0.14;76.41;99800.59;1718269;82;20999;-43
2022/03/08 00:52:09;;;;;;;30.37;10.10;;;;;;;-0.15;75.66;99800.59;1718289;82;20988;-43
2022/03/08 00:54:35;;;;;;;20.70;8.50;;;;;;;-0.20;75.92;99800.18;1718259;82;21059;-41
2022/03/08 00:57:01;;;;;;;27.85;8.48;;;;;;;-0.22;76.42;99807.49;1718308;83;20972;-44
2022/03/08 00:59:26;;;;;;;19.25;8.65;;;;;;;-0.27;76.95;99806.67;1718394;82;21059;-44
2022/03/08 01:01:52;;;;;;;23.60;8.03;;;;;;;-0.25;75.82;99808.38;1718377;82;20972;-45
2022/03/08 01:04:18;;;;;;;24.20;9.53;;;;;;;-0.31;77.44;99807.52;1718295;82;21039;-45
2022/03/08 01:06:44;;;;;;;28.77;9.25;;;;;;;-0.29;77.84;99805.78;1718296;82;20996;-42
2022/03/08 01:09:11;;;;;;;23.98;8.33;;;;;;;-0.24;77.37;99793.72;1708247;83;21023;-41
2022/03/08 01:11:39;;;;;;;22.90;9.13;;;;;;;-0.23;76.96;99798.03;1718529;82;21008;-43
2022/03/08 01:14:07;;;;;;;18.77;7.35;;;;;;;-0.26;77.19;99787.25;1718343;82;21011;-41
2022/03/08 01:16:34;;;;;;;25.40;9.23;;;;;;;-0.26;76.82;99783.38;1718441;82;21003;-42
2022/03/08 01:19:00;;;;;;;18.12;8.13;;;;;;;-0.28;76.72;99777.80;1718456;82;21000;-45
2022/03/08 01:21:25;;;;;;;17.62;8.60;;;;;;;-0.26;76.77;99777.36;1718309;82;21516;-44
2022/03/08 01:23:51;;;;;;;26.10;9.45;;;;;;;-0.29;75.99;99775.66;1718401;83;21026;-44
2022/03/08 01:26:17;;;;;;;24.10;9.85;;;;;;;-0.37;76.67;99773.52;1718245;82;21000;-46
2022/03/08 01:28:43;;;;;;;29.75;9.90;;;;;;;-0.35;76.86;99771.78;1718268;82;21035;-45
2022/03/08 01:31:10;;;;;;;28.23;9.83;;;;;;;-0.35;77.09;99770.49;1718288;83;20996;-46
2022/03/08 01:33:35;;;;;;;20.15;8.85;;;;;;;-0.35;77.25;99773.52;1718262;83;21027;-43
2022/03/08 01:36:02;;;;;;;24.47;9.35;;;;;;;-0.33;76.26;99776.95;1718291;83;21059;-43
2022/03/08 01:38:28;;;;;;;22.10;9.20;;;;;;;-0.35;76.86;99786.44;1718296;82;20999;-46
2022/03/08 01:40:54;;;;;;;27.73;9.90;;;;;;;-0.35;76.59;99779.98;1718251;82;21631;-41
2022/03/08 01:43:20;;;;;;;22.93;9.65;;;;;;;-0.39;77.29;99786.88;1718358;83;21004;-45
2022/03/08 01:45:46;;;;;;;25.88;9.88;;;;;;;-0.37;77.01;99787.73;1718260;82;21581;-42
2022/03/08 01:48:12;;;;;;;22.48;8.88;;;;;;;-0.39;77.24;99789.46;1718231;82;21024;-42
2022/03/08 01:50:38;;;;;;;21.82;9.08;;;;;;;-0.34;76.28;99789.02;1718306;83;20992;-42
2022/03/08 01:53:04;;;;;;;18.25;7.85;;;;;;;-0.36;76.49;99792.45;1718434;82;20980;-42
2022/03/08 01:55:29;;;;;;;18.57;8.20;;;;;;;-0.33;76.42;99789.43;1718378;83;21051;-44
2022/03/08 01:57:56;;;;;;;19.00;7.95;;;;;;;-0.33;76.46;99785.55;1718582;83;21038;-42
2022/03/08 02:00:26;;;;;;;17.27;7.75;;;;;;;-0.34;76.92;99784.30;1718461;82;21540;-42
2022/03/08 02:02:52;;;;;;;17.50;7.47;;;;;;;-0.35;77.60;99787.73;1718291;82;20964;-43
2022/03/08 02:05:18;;;;;;;20.30;7.70;;;;;;;-0.26;77.22;99786.41;1718417;82;21030;-43
2022/03/08 02:07:44;;;;;;;20.92;8.43;;;;;;;-0.22;76.40;99785.52;1718402;82;20995;-43
2022/03/08 02:10:10;;;;;;;22.50;8.38;;;;;;;-0.23;76.35;99781.23;1718428;82;20995;-44
2022/03/08 02:12:37;;;;;;;23.47;8.73;;;;;;;-0.22;76.21;99784.23;1718417;82;21031;-43
2022/03/08 02:15:19;;;;;;;23.17;8.93;;;;;;;-0.22;76.22;99779.06;1718691;82;21485;-44
2022/03/08 02:17:46;;;;;;;24.47;8.58;;;;;;;-0.20;77.06;99777.33;1718445;82;21481;-45
2022/03/08 02:20:13;;;;;;;20.85;7.72;;;;;;;-0.12;76.47;99774.30;1718421;83;20995;-44
2022/03/08 02:22:40;;;;;;;;;;;;;;;-0.11;75.39;99772.56;1720955;82;20992;-43
2022/03/08 02:25:07;;;;;;;19.20;8.08;;;;;;;-0.15;75.41;99773.00;1718685;83;20115;-44
2022/03/08 02:27:34;;;;;;;16.77;6.70;;;;;;;-0.13;76.12;99773.85;1718499;82;20994;-43
2022/03/08 02:30:00;;;;;;;16.50;6.90;;;;;;;-0.06;74.94;99765.20;1718408;82;20963;-43
2022/03/08 02:32:25;;;;;;;16.50;6.92;;;;;;;-0.11;76.24;99774.73;1718409;82;20995;-45
2022/03/08 02:34:51;;;;;;;20.90;8.20;;;;;;;-0.11;76.04;99778.61;1718334;83;21040;-45
2022/03/08 02:37:17;;;;;;;20.35;7.58;;;;;;;-0.11;76.22;99773.84;1718390;82;21033;-43
2022/03/08 02:39:44;;;;;;;19.90;7.85;;;;;;;-0.06;75.94;99779.87;1718507;82;20972;-44
2022/03/08 02:42:10;;;;;;;18.40;8.05;;;;;;;0.01;75.50;99784.59;1748473;78;21049;-42
2022/03/08 02:44:36;;;;;;;16.62;7.65;;;;;;;0.07;75.18;99783.25;1761777;81;20969;-43
2022/03/08 02:47:04;;;;;;;15.43;6.67;;;;;;;0.04;75.15;99784.14;1761746;81;20958;-44
2022/03/08 02:49:31;;;;;;;15.50;6.45;;;;;;;0.06;75.10;99790.16;1761677;81;20989;-46
2022/03/08 02:51:57;;;;;;;;;;;;;;;0.09;74.67;99789.27;1764295;81;21463;-44
2022/03/08 02:54:24;;;;;;;16.45;6.40;;;;;;;0.01;75.37;99797.08;1761666;81;20122;-42
2022/03/08 02:56:51;;;;;;;18.83;6.37;;;;;;;0.06;75.63;99793.19;1753909;81;21466;-42
2022/03/08 02:59:22;;;;;;;15.40;6.17;;;;;;;0.02;75.63;99797.52;1747546;81;20966;-42
2022/03/08 03:01:48;;;;;;;14.10;5.75;;;;;;;-0.01;75.52;99800.95;1726711;83;20955;-42
2022/03/08 03:04:14;;;;;;;12.45;5.78;;;;;;;0.07;74.72;99798.77;1727311;83;21006;-43
2022/03/08 03:06:40;;;;;;;12.53;5.47;;;;;;;0.02;74.48;99798.81;1727292;83;21042;-42
2022/03/08 03:09:07;;;;;;;11.70;5.40;;;;;;;0.08;75.09;99803.09;1727399;83;21002;-43
2022/03/08 03:11:33;;;;;;;19.40;7.17;;;;;;;0.01;75.34;99800.10;1727366;82;21491;-43
2022/03/08 03:13:58;;;;;;;16.50;5.87;;;;;;;0.03;75.00;99795.34;1727279;82;21034;-42
2022/03/08 03:16:24;;;;;;;10.40;4.87;;;;;;;0.07;75.31;99801.36;1727293;83;21006;-42
2022/03/08 03:18:50;;;;;;;14.35;5.53;;;;;;;-0.07;75.87;99809.19;1727324;82;20959;-43
2022/03/08 03:21:16;;;;;;;15.28;5.45;;;;;;;0.03;75.50;99809.56;1727233;83;21555;-42
2022/03/08 03:23:41;;;;;;;14.33;5.80;;;;;;;0.08;75.79;99811.70;1727363;83;21436;-43
2022/03/08 03:26:07;;;;;;;13.08;5.22;;;;;;;0.12;75.08;99805.64;1727341;83;21042;-43
2022/03/08 03:28:33;;;;;;;13.95;5.35;;;;;;;0.08;75.31;99808.27;1727306;83;21006;-44
2022/03/08 03:30:59;;;;;;;9.43;5.30;;;;;;;0.04;75.33;99820.34;1727281;82;21139;-42
2022/03/08 03:33:24;;;;;;;18.42;6.10;;;;;;;0.10;75.23;99813.84;1727324;82;20963;-44
2022/03/08 03:35:50;;;;;;;18.65;6.15;;;;;;;0.03;75.41;99808.71;1727221;82;21033;-42
2022/03/08 03:38:16;;;;;;;15.08;6.15;;;;;;;0.07;75.22;99811.70;1727278;83;21003;-42
2022/03/08 03:40:42;;;;;;;16.77;5.85;;;;;;;0.09;75.68;99807.38;1727459;83;20963;-42
2022/03/08 03:43:08;;;;;;;15.08;6.15;;;;;;;0.08;75.91;99814.73;1726154;81;21077;-43
2022/03/08 03:45:33;;;;;;;17.00;6.37;;;;;;;0.09;76.29;99814.73;1726811;83;21460;-44
2022/03/08 03:47:59;;;;;;;19.73;7.58;;;;;;;0.24;75.18;99820.26;1727310;83;20986;-43
2022/03/08 03:50:25;;;;;;;17.42;6.67;;;;;;;0.15;75.88;99819.01;1727250;83;21022;-43
2022/03/08 03:52:52;;;;;;;19.75;6.92;;;;;;;0.23;75.61;99826.28;1727275;82;20993;-42
2022/03/08 03:55:18;;;;;;;10.75;5.03;;;;;;;0.26;75.61;99817.67;1727376;83;20978;-43
2022/03/08 03:57:44;;;;;;;12.95;6.08;;;;;;;0.35;74.78;99827.52;1727380;82;21483;-42
2022/03/08 04:00:14;;;;;;;12.35;5.55;;;;;;;0.32;75.03;99831.41;1727237;83;20974;-43
2022/03/08 04:02:40;;;;;;;13.75;5.42;;;;;;;0.34;75.46;99833.99;1727265;82;21033;-42
2022/03/08 04:05:08;;;;;;;13.85;6.20;;;;;;;0.31;75.61;99832.70;1727388;81;20990;-43
2022/03/08 04:07:33;;;;;;;18.00;6.42;;;;;;;0.31;75.79;99832.70;1727242;82;20971;-43
2022/03/08 04:09:59;;;;;;;13.03;5.70;;;;;;;0.32;75.73;99842.20;1727217;83;20987;-43
2022/03/08 04:12:25;;;;;;;15.90;6.22;;;;;;;0.30;75.67;99842.20;1727253;83;21002;-42
2022/03/08 04:14:50;;;;;;;16.12;6.55;;;;;;;0.32;75.88;99837.88;1727169;83;20974;-42
2022/03/08 04:17:16;;;;;;;21.95;6.80;;;;;;;0.37;75.90;99841.75;1727216;82;21038;-43
2022/03/08 04:19:42;;;;;;;13.08;5.53;;;;;;;0.33;76.16;99839.61;1727209;83;20982;-42
2022/03/08 04:22:09;;;;;;;15.88;5.62;;;;;;;0.39;75.56;99838.72;1726975;83;21010;-42
2022/03/08 04:24:35;;;;;;;14.43;6.40;;;;;;;0.36;75.77;99838.31;1727564;81;21590;-42
2022/03/08 04:27:01;;;;;;;14.47;5.58;;;;;;;0.41;75.88;99836.98;1727266;83;20994;-42
2022/03/08 04:29:27;;;;;;;19.35;5.85;;;;;;;0.47;75.18;99845.14;1727268;83;20990;-42
2022/03/08 04:31:53;;;;;;;16.87;6.15;;;;;;;0.37;75.59;99850.80;1727253;83;21038;-43
2022/03/08 04:34:19;;;;;;;15.15;5.60;;;;;;;0.40;75.57;99847.33;1727286;82;21050;-43
2022/03/08 04:36:45;;;;;;;14.95;5.58;;;;;;;0.42;75.05;99837.83;1727338;83;21511;-44
2022/03/08 04:39:11;;;;;;;17.05;6.67;;;;;;;0.33;76.06;99837.02;1727234;83;21557;-44
2022/03/08 04:41:36;;;;;;;15.45;6.05;;;;;;;0.42;75.23;99833.95;1727303;81;21029;-43
2022/03/08 04:44:02;;;;;;;12.10;5.55;;;;;;;0.31;76.55;99841.34;1729610;82;20990;-43
2022/03/08 04:46:28;;;;;;;17.98;6.03;;;;;;;0.37;76.09;99835.28;1729583;83;21054;-42
2022/03/08 04:48:55;;;;;;;15.25;6.15;;;;;;;0.28;76.67;99828.42;1729676;83;21538;-44
2022/03/08 04:51:21;;;;;;;14.93;6.53;;;;;;;0.24;77.09;99840.95;1729657;83;21033;-42
2022/03/08 04:53:46;;;;;;;16.80;6.42;;;;;;;0.32;76.11;99835.29;1729490;83;20998;-42
2022/03/08 04:56:12;;;;;;;14.50;6.20;;;;;;;0.32;76.00;99837.88;1729592;83;21026;-43
2022/03/08 04:58:38;;;;;;;17.17;6.62;;;;;;;0.30;76.57;99851.25;1729585;83;20998;-42
2022/03/08 05:01:04;;;;;;;14.87;6.70;;;;;;;0.25;76.95;99853.00;1729564;81;20979;-43
2022/03/08 05:03:29;;;;;;;21.95;6.62;;;;;;;0.29;77.01;99863.78;1729589;83;20995;-42
2022/03/08 05:05:55;;;;;;;13.18;6.78;;;;;;;0.31;76.93;99858.16;1729693;83;20970;-43
2022/03/08 05:08:21;;;;;;;15.18;6.45;;;;;;;0.23;77.17;99848.27;1729576;83;21523;-42
2022/03/08 05:10:47;;;;;;;14.23;7.08;;;;;;;0.27;76.92;99855.59;1729652;83;20994;-42
2022/03/08 05:13:13;;;;;;;18.52;6.72;;;;;;;0.27;76.71;99848.67;1729220;83;21049;-42
2022/03/08 05:15:38;;;;;;;13.32;7.20;;;;;;;0.15;77.37;99848.31;1729568;83;21034;-41
2022/03/08 05:18:04;;;;;;;31.27;15.43;;;;;;;0.24;77.52;99851.30;1729545;83;21005;-43
2022/03/08 05:20:30;;;;;;;19.27;8.60;;;;;;;0.25;77.33;99846.53;1729648;83;21002;-44
2022/03/08 05:22:56;;;;;;;16.10;7.40;;;;;;;0.30;77.08;99848.67;1729584;83;20995;-44
2022/03/08 05:25:23;;;;;;;14.80;7.15;;;;;;;0.40;75.73;99842.16;1729588;83;21006;-43
2022/03/08 05:27:49;;;;;;;17.55;7.72;;;;;;;0.29;75.97;99851.26;1729753;83;20998;-42
2022/03/08 05:30:14;;;;;;;16.57;7.90;;;;;;;0.29;76.55;99858.61;1729704;81;21002;-42
2022/03/08 05:32:40;;;;;;;15.65;8.33;;;;;;;0.30;76.68;99853.84;1729703;81;21041;-42
2022/03/08 05:35:07;;;;;;;17.35;8.33;;;;;;;0.17;77.43;99867.27;1729753;83;21037;-42
2022/03/08 05:37:33;;;;;;;21.63;9.07;;;;;;;0.28;77.34;99869.81;1729941;83;21006;-42
2022/03/08 05:39:59;;;;;;;17.35;8.28;;;;;;;0.27;76.87;99864.20;1729726;83;21498;-42
2022/03/08 05:42:25;;;;;;;15.38;8.88;;;;;;;0.25;77.11;99867.22;1729021;81;21062;-42
2022/03/08 05:44:50;;;;;;;20.00;9.80;;;;;;;0.17;76.97;99861.23;1727308;83;21005;-43
2022/03/08 05:47:16;;;;;;;21.73;9.50;;;;;;;0.25;76.91;99871.11;1727329;83;21003;-42
2022/03/08 05:49:42;;;;;;;19.50;9.10;;;;;;;0.14;77.62;99865.97;1727410;83;21034;-42
2022/03/08 05:52:08;;;;;;;16.02;7.55;;;;;;;0.12;78.21;99870.30;1727325;82;20974;-41
2022/03/08 05:54:33;;;;;;;18.37;8.65;;;;;;;0.19;77.46;99880.20;1727292;83;20982;-41
2022/03/08 05:56:59;;;;;;;18.98;10.45;;;;;;;0.21;77.37;99881.05;1727373;83;21006;-42
2022/03/08 05:59:26;;;;;;;24.85;10.53;;;;;;;0.14;77.81;99880.64;1727347;83;20978;-42
2022/03/08 06:01:51;;;;;;;19.20;10.50;;;;;;;0.15;77.51;99890.13;1727337;83;20990;-43
2022/03/08 06:04:17;;;;;;;26.52;10.32;;;;;;;0.15;77.66;99882.38;1727416;83;21499;-42
2022/03/08 06:06:43;;;;;;;23.25;11.18;;;;;;;0.22;77.66;99890.95;1727372;82;21050;-43
2022/03/08 06:09:09;;;;;;;24.77;11.73;;;;;;;0.13;78.28;99890.13;1727359;83;20994;-43
2022/03/08 06:11:34;;;;;;;21.73;10.53;;;;;;;0.18;77.63;99893.98;1727373;83;21002;-42
2022/03/08 06:14:00;;;;;;;21.97;10.88;;;;;;;0.17;77.10;99889.69;1727309;83;21001;-42
2022/03/08 06:16:26;;;;;;;45.43;19.75;;;;;;;0.20;77.57;99889.69;1727333;82;20999;-42
2022/03/08 06:18:55;;;;;;;28.17;13.60;;;;;;;0.20;77.53;99883.22;1727325;83;21023;-42
2022/03/08 06:21:21;;;;;;;;;;;;;;;0.17;77.87;99881.93;1729673;83;21436;-42
2022/03/08 06:23:46;;;;;;;27.37;12.53;;;;;;;0.23;78.36;99881.89;1727514;81;20448;-42
2022/03/08 06:26:12;;;;;;;24.92;13.72;;;;;;;0.24;78.01;99883.63;1727349;82;21076;-42
2022/03/08 06:28:38;;;;;;;24.92;12.23;;;;;;;0.29;77.57;99884.48;1727410;83;21049;-42
2022/03/08 06:31:04;;;;;;;24.65;12.63;;;;;;;0.21;77.81;99890.09;1727383;83;20966;-42
2022/03/08 06:33:30;;;;;;;31.68;13.03;;;;;;;0.20;78.24;99889.69;1727313;82;20998;-42
2022/03/08 06:35:56;;;;;;;52.70;28.55;;;;;;;0.31;77.62;99894.38;1727391;83;21574;-42
2022/03/08 06:38:22;;;;;;;35.90;17.12;;;;;;;0.22;78.17;99900.00;1727470;82;20959;-42
2022/03/08 06:40:48;;;;;;;40.08;23.30;;;;;;;0.24;78.22;99899.56;1727380;83;20999;-42
2022/03/08 06:43:14;;;;;;;39.25;20.62;;;;;;;0.28;78.21;99903.88;1728458;81;21565;-43
2022/03/08 06:45:40;;;;;;;25.55;14.35;;;;;;;0.31;77.84;99911.20;1729701;83;21029;-42
2022/03/08 06:48:05;;;;;;;27.87;14.05;;;;;;;0.30;78.05;99904.29;1729763;83;20987;-42
2022/03/08 06:50:31;;;;;;;24.00;13.62;;;;;;;0.30;77.73;99913.34;1729640;83;20963;-42
2022/03/08 06:52:57;;;;;;;22.30;12.85;;;;;;;0.16;78.42;99916.41;1729661;83;20994;-42
2022/03/08 06:55:23;;;;;;;29.95;15.60;;;;;;;0.20;78.31;99923.31;1729623;81;20995;-42
2022/03/08 06:57:52;;;;;;;26.80;13.10;;;;;;;0.29;77.95;99925.87;1729659;83;20990;-44
2022/03/08 07:00:19;;;;;;;25.57;14.93;;;;;;;0.29;77.86;99921.98;1729657;81;21002;-42
2022/03/08 07:02:46;;;;;;;27.90;16.00;;;;;;;0.32;78.16;99908.17;1729756;83;20971;-42
2022/03/08 07:05:12;;;;;;;29.25;13.88;;;;;;;0.41;77.84;99912.02;1729723;83;21034;-42
2022/03/08 07:07:38;;;;;;;26.75;14.05;;;;;;;0.43;78.00;99912.02;1729660;83;20970;-42
2022/03/08 07:10:08;;;;;;;28.67;14.65;;;;;;;0.48;77.02;99915.45;1729687;83;21542;-42
2022/03/08 07:12:34;;;;;;;31.27;15.25;;;;;;;0.55;77.32;99915.84;1729731;83;20998;-42
2022/03/08 07:15:00;;;;;;;29.82;14.33;;;;;;;0.45;77.52;99914.16;1729617;83;21531;-42
2022/03/08 07:17:26;;;;;;;32.67;15.80;;;;;;;0.48;77.77;99906.39;1729688;83;20994;-42
2022/03/08 07:19:51;;;;;;;42.95;17.40;;;;;;;0.52;77.27;99913.27;1729649;83;21043;-42
2022/03/08 07:22:17;;;;;;;35.80;17.77;;;;;;;0.47;77.43;99910.68;1729627;83;21026;-42
2022/03/08 07:24:44;;;;;;;30.97;18.20;;;;;;;0.49;77.45;99914.16;1729610;83;20998;-42
2022/03/08 07:27:10;;;;;;;36.40;21.60;;;;;;;0.47;77.29;99915.01;1729815;83;21036;-44
2022/03/08 07:29:36;;;;;;;29.05;16.37;;;;;;;0.46;76.88;99918.48;1729715;83;21029;-42
2022/03/08 07:32:03;;;;;;;32.43;16.57;;;;;;;0.37;77.41;99922.81;1730004;82;21041;-42
2022/03/08 07:34:29;;;;;;;29.42;17.37;;;;;;;0.49;76.86;99921.91;1729621;83;21046;-42
2022/03/08 07:36:54;;;;;;;27.37;15.58;;;;;;;0.42;76.71;99921.51;1729595;81;21006;-42
2022/03/08 07:39:20;;;;;;;30.15;15.43;;;;;;;0.38;77.16;99922.36;1729567;82;21042;-43
2022/03/08 07:41:46;;;;;;;25.92;15.43;;;;;;;0.32;77.00;99927.13;1729601;83;21022;-43
2022/03/08 07:44:12;;;;;;;25.00;13.90;;;;;;;0.32;77.15;99936.19;1727666;81;21026;-42
2022/03/08 07:46:39;;;;;;;30.27;15.85;;;;;;;0.32;77.11;99921.11;1727270;83;20983;-42
2022/03/08 07:49:05;;;;;;;26.23;15.63;;;;;;;0.31;77.53;99921.95;1727339;82;21054;-42
2022/03/08 07:51:31;;;;;;;32.45;13.95;;;;;;;0.36;78.05;99922.81;1727355;82;21542;-42
2022/03/08 07:53:59;;;;;;;23.60;13.43;;;;;;;0.48;76.80;99916.73;1727187;83;21436;-42
2022/03/08 07:56:25;;;;;;;22.93;12.80;;;;;;;0.47;77.26;99918.89;1727391;83;21006;-42
2022/03/08 07:58:52;;;;;;;24.43;13.83;;;;;;;0.52;77.09;99921.88;1727303;82;21575;-42
2022/03/08 08:01:18;;;;;;;25.43;12.68;;;;;;;0.56;77.11;99927.49;1727418;83;21026;-43
2022/03/08 08:03:44;;;;;;;24.80;13.80;;;;;;;0.61;77.56;99931.34;1727258;83;20999;-42
2022/03/08 08:06:10;;;;;;;27.37;15.00;;;;;;;0.63;77.79;99932.63;1727371;83;21437;-43
2022/03/08 08:08:36;;;;;;;22.73;12.47;;;;;;;0.81;77.38;99931.69;1727262;83;21492;-44
2022/03/08 08:11:02;;;;;;;22.87;12.28;;;;;;;0.97;76.37;99942.38;1727270;83;21018;-43
2022/03/08 08:13:28;;;;;;;30.23;12.00;;;;;;;0.82;76.17;99942.45;1727284;83;21347;-43
2022/03/08 08:15:53;;;;;;;21.33;12.05;;;;;;;0.74;76.10;99937.31;1727385;83;21544;-43
2022/03/08 08:18:20;;;;;;;25.52;12.03;;;;;;;0.67;76.49;99936.47;1727374;83;21483;-43
2022/03/08 08:20:46;;;;;;;21.68;12.07;;;;;;;0.63;76.78;99942.55;1727457;83;20967;-43
2022/03/08 08:23:12;;;;;;;33.50;12.70;;;;;;;0.80;76.07;99954.13;1727204;83;21050;-42
2022/03/08 08:25:38;;;;;;;33.75;16.87;;;;;;;0.81;75.88;99957.58;1727279;83;20997;-43
2022/03/08 08:28:06;;;;;;;25.92;13.00;;;;;;;0.93;75.66;99957.52;1727260;83;21053;-43
2022/03/08 08:30:33;;;;;;;18.50;11.10;;;;;;;1.02;75.59;99963.94;1727275;83;20999;-43
2022/03/08 08:33:00;;;;;;;22.75;11.88;;;;;;;1.07;75.25;99969.93;1727377;83;20993;-43
2022/03/08 08:35:30;;;;;;;29.30;12.40;;;;;;;0.99;75.00;99958.77;1727236;83;21490;-42
2022/03/08 08:37:55;;;;;;;25.88;10.25;;;;;;;1.01;74.92;99963.50;1727202;82;21041;-42
2022/03/08 08:40:21;;;;;;;21.82;10.88;;;;;;;1.02;74.64;99971.71;1727346;83;21038;-43
2022/03/08 08:42:47;;;;;;;20.20;11.12;;;;;;;0.99;75.02;99969.13;1727280;81;20998;-42
2022/03/08 08:45:14;;;;;;;21.20;10.40;;;;;;;0.99;74.89;99961.36;1727457;83;20999;-41
2022/03/08 08:47:40;;;;;;;19.07;10.03;;;;;;;1.01;74.75;99963.50;1727568;83;21002;-42
2022/03/08 08:50:06;;;;;;;16.75;10.18;;;;;;;1.02;74.54;99960.47;1727363;83;21460;-43
2022/03/08 08:52:33;;;;;;;17.40;9.35;;;;;;;1.07;74.42;99963.45;1726763;83;21483;-47
2022/03/08 08:54:59;;;;;;;19.85;10.53;;;;;;;0.99;74.27;99969.13;1698356;83;21074;-42
2022/03/08 08:57:25;;;;;;;23.25;11.40;;;;;;;1.12;74.73;99955.67;1698297;83;21049;-42
2022/03/08 08:59:51;;;;;;;21.97;11.73;;;;;;;1.19;74.19;99957.80;1698262;84;20997;-43
2022/03/08 09:02:17;;;;;;;20.25;12.03;;;;;;;1.27;74.41;99959.44;1698452;84;21610;-42
2022/03/08 09:04:43;;;;;;;24.70;11.38;;;;;;;1.43;74.53;99961.94;1698389;83;20971;-43
2022/03/08 09:07:08;;;;;;;28.52;12.85;;;;;;;1.61;73.61;99963.54;1698383;84;21507;-43
2022/03/08 09:09:34;;;;;;;24.52;12.65;;;;;;;1.57;73.35;99961.41;1698436;84;21522;-43
2022/03/08 09:12:00;;;;;;;28.32;12.88;;;;;;;1.62;73.20;99964.83;1698463;84;21538;-43
2022/03/08 09:14:26;;;;;;;24.40;11.60;;;;;;;1.79;73.04;99964.68;1698387;83;21526;-43
2022/03/08 09:16:52;;;;;;;20.97;11.53;;;;;;;1.79;72.58;99965.97;1698365;83;20998;-43
2022/03/08 09:19:18;;;;;;;28.40;13.08;;;;;;;1.84;72.34;99957.72;1698393;83;21019;-43
2022/03/08 09:21:44;;;;;;;23.12;12.25;;;;;;;1.90;72.06;99951.62;1698361;83;21058;-43
2022/03/08 09:24:09;;;;;;;26.93;12.40;;;;;;;1.91;71.91;99956.80;1698475;83;20994;-43
2022/03/08 09:26:35;;;;;;;19.23;10.20;;;;;;;1.92;71.85;99949.41;1698451;83;20998;-42
2022/03/08 09:29:01;;;;;;;22.30;10.72;;;;;;;1.92;71.35;99947.27;1698389;84;21017;-43
2022/03/08 09:31:27;;;;;;;25.95;11.70;;;;;;;2.00;71.56;99945.89;1698373;84;21041;-43
2022/03/08 09:33:53;;;;;;;39.20;15.38;;;;;;;1.91;71.58;99933.45;1698403;83;21002;-44
2022/03/08 09:36:18;;;;;;;18.05;11.68;;;;;;;2.05;71.47;99935.03;1698340;84;21006;-43
2022/03/08 09:38:45;;;;;;;21.10;12.33;;;;;;;2.19;71.11;99929.27;1698372;83;21045;-44
2022/03/08 09:41:12;;;;;;;18.02;10.38;;;;;;;2.13;71.61;99925.45;1698325;84;21049;-42
2022/03/08 09:43:38;;;;;;;22.65;11.25;;;;;;;2.21;70.93;99928.80;1709458;83;20996;-46
2022/03/08 09:46:06;;;;;;;25.77;10.93;;;;;;;2.32;70.50;99914.86;1734165;83;20956;-43
2022/03/08 09:48:33;;;;;;;;;;;;;;;2.40;70.45;99915.20;1736543;82;21054;-45
2022/03/08 09:51:03;;;;;;;22.60;11.40;;;;;;;2.53;69.92;99910.72;1734053;82;20524;-43
2022/03/08 09:53:30;;;;;;;16.17;8.25;;;;;;;2.68;69.45;99907.91;1741738;81;20971;-47
2022/03/08 09:56:00;;;;;;;17.57;8.38;;;;;;;2.88;68.92;99906.78;1758460;81;21503;-44
2022/03/08 09:58:26;;;;;;;26.10;7.55;;;;;;;3.01;68.84;99903.12;1762521;81;20981;-45
2022/03/08 10:00:55;;;;;;;16.48;7.00;;;;;;;3.08;67.81;99900.00;1762434;81;20984;-45
2022/03/08 10:03:35;;;;;;;18.55;8.20;;;;;;;3.12;67.66;99896.92;1762102;81;20981;-46
2022/03/08 10:06:03;;;;;;;25.70;8.83;;;;;;;3.01;67.61;99892.73;1761596;81;20992;-46
2022/03/08 10:08:29;;;;;;;26.85;9.70;;;;;;;3.05;67.56;99891.79;1762448;81;21501;-44
2022/03/08 10:10:59;;;;;;;20.08;8.43;;;;;;;3.20;67.77;99892.44;1762487;81;21465;-46
2022/03/08 10:13:39;;;;;;;12.90;6.72;;;;;;;3.33;66.59;99880.98;1762312;81;20987;-44
2022/03/08 10:16:26;;;;;;;19.87;6.72;;;;;;;3.47;66.07;99871.64;1762271;81;21441;-44
2022/03/08 10:18:57;;;;;;;14.95;6.95;;;;;;;3.50;65.35;99865.09;1762415;81;20980;-46
2022/03/08 10:21:35;;;;;;;32.58;6.92;;;;;;;3.64;64.92;99849.27;1762380;81;21489;-45
2022/03/08 10:24:15;;;;;;;8.08;4.80;;;;;;;3.83;64.74;99844.11;1762291;81;20992;-45
2022/03/08 10:26:48;;;;;;;14.75;6.05;;;;;;;4.07;64.42;99844.52;1762442;81;21459;-45
2022/03/08 10:29:24;;;;;;;15.83;5.80;;;;;;;4.06;62.99;99840.22;1762344;81;21043;-45
2022/03/08 10:32:04;;;;;;;12.60;5.10;;;;;;;4.25;63.14;99852.41;1762380;81;20996;-46
2022/03/08 10:34:31;;;;;;;14.18;4.50;;;;;;;4.37;62.80;99844.35;1762238;81;21015;-46
2022/03/08 10:37:08;;;;;;;8.38;4.70;;;;;;;4.32;61.10;99847.95;1762379;81;21000;-44
2022/03/08 10:39:34;;;;;;;14.63;4.42;;;;;;;4.13;60.80;99847.03;1762245;81;20997;-45
2022/03/08 10:42:01;;;;;;;16.73;5.53;;;;;;;4.02;61.66;99847.23;1762345;81;21005;-45
2022/03/08 10:44:39;;;;;;;13.90;5.63;;;;;;;4.01;61.81;99838.16;1747978;81;20997;-46
2022/03/08 10:47:11;;;;;;;9.95;5.12;;;;;;;4.01;62.25;99836.40;1734149;81;21004;-44
2022/03/08 10:49:51;;;;;;;8.35;4.47;;;;;;;4.08;61.02;99841.05;1734251;83;20989;-43
2022/03/08 10:52:29;;;;;;;15.35;4.60;;;;;;;4.13;60.86;99830.11;1731299;82;21059;-46
2022/03/08 10:55:11;;;;;;;11.20;5.22;;;;;;;4.22;61.41;99827.31;1734267;83;21043;-47
2022/03/08 10:57:39;;;;;;;12.63;5.22;;;;;;;4.26;61.30;99825.92;1734156;82;20992;-45
2022/03/08 11:00:11;;;;;;;8.18;4.25;;;;;;;4.01;60.82;99823.38;1734336;82;21043;-44
2022/03/08 11:02:51;;;;;;;7.60;4.22;;;;;;;3.99;60.67;99816.52;1734289;83;21012;-45
2022/03/08 11:05:19;;;;;;;6.62;3.65;;;;;;;3.80;60.87;99814.27;1734276;83;20973;-45
2022/03/08 11:07:45;;;;;;;14.55;6.05;;;;;;;3.75;60.42;99814.80;1734262;82;21063;-45
2022/03/08 11:10:12;;;;;;;11.05;5.03;;;;;;;3.69;60.39;99810.99;1733311;82;21067;-44
2022/03/08 11:12:39;;;;;;;9.60;3.98;;;;;;;3.75;59.93;99814.80;1734414;82;20968;-45
2022/03/08 11:15:08;;;;;;;15.10;4.55;;;;;;;3.65;60.03;99807.59;1734443;82;21040;-43
2022/03/08 11:17:37;;;;;;;8.83;3.72;;;;;;;3.58;60.66;99816.39;1734259;81;21640;-45
2022/03/08 11:20:07;;;;;;;5.33;2.92;;;;;;;3.72;59.58;99829.16;1734289;81;21012;-45
2022/03/08 11:22:34;;;;;;;7.60;3.58;;;;;;;3.55;58.12;99816.92;1734052;81;21012;-47
2022/03/08 11:25:00;;;;;;;6.70;3.80;;;;;;;3.55;59.06;99818.22;1734338;83;21000;-44
2022/03/08 11:27:26;;;;;;;16.93;6.62;;;;;;;3.50;59.38;99813.55;1734256;82;21477;-47